Latest Coastal Weather Observations for Adele Island

IDW60701

Issued at 10:03 pm WST Wednesday 28 June 2017 (issued every 10 minutes, with the page automatically refreshed every 10 minutes)

About coastal observations | Map of coastal stations | Coastal observations for WA | Marine services | Other Formats
Station Details ID: 200735 Name: ADELE ISLAND Lat: -15.51 Lon: 123.16 Height: 4.6 m
Data from the previous 72 hours. | See also: Recent months at Adele Island
Date/Time
WST
Temp
°C
Wind Pressure Rain since
9am
mm
Weather Cloud Vis
km
Sea
Height
m
Swell
Dir  Spd
kts
Gust
kts
hPa Trend Height
m
Period
s
Dir
28/10:00pm - SSE 16 21 1015.6 - - - - - - - - -
28/09:30pm - SE 18 21 1015.5 - - - - - - - - -
28/09:00pm - SSE 17 21 1015.4 - - - - - - - - -
28/08:30pm - SSE 18 22 1015.4 - - - - - - - - -
28/08:00pm - SSE 17 20 1015.3 - - - - - - - - -
28/07:30pm - SSE 16 21 1015.0 - - - - - - - - -
28/07:00pm - SSE 15 20 1014.8 - - - - - - - - -
28/06:30pm - SSE 15 20 1014.5 - - - - - - - - -
28/06:00pm - SSE 15 18 1014.3 - - - - - - - - -
28/05:30pm - SSE 14 17 1014.1 - - - - - - - - -
28/05:00pm - SSE 15 19 1013.8 - - - - - - - - -
28/04:30pm - SSE 16 21 1013.4 - - - - - - - - -
28/04:00pm - SSE 17 21 1013.3 - - - - - - - - -
28/03:30pm - SSE 16 21 1013.2 - - - - - - - - -
28/03:00pm - SSE 17 21 1013.1 - - - - - - - - -
28/02:30pm - SSE 17 21 1013.0 - - - - - - - - -
28/02:00pm - SSE 16 19 1013.3 - - - - - - - - -
28/01:30pm - SSE 15 20 1013.5 - - - - - - - - -
28/01:00pm - SSE 15 20 1013.8 - - - - - - - - -
28/12:30pm - SSE 16 20 1014.1 - - - - - - - - -
28/12:00pm - SSE 16 21 1014.5 - - - - - - - - -
28/11:30am - SSE 16 21 1014.8 - - - - - - - - -
28/11:00am - SE 17 22 1015.1 - - - - - - - - -
28/10:30am - SSE 18 21 1015.5 - - - - - - - - -
28/10:00am - SSE 17 21 1015.6 - - - - - - - - -
28/09:30am - SSE 18 22 1015.5 - - - - - - - - -
28/09:00am - SSE 17 - 1015.5 - - - - - - - - -
28/08:30am - SSE 17 21 1015.5 - - - - - - - - -
28/08:00am - SSE 16 20 1015.3 - - - - - - - - -
28/07:30am - SSE 15 19 1015.1 - - - - - - - - -
28/07:00am - SSE 11 18 1014.9 - - - - - - - - -
28/06:30am - SSE 12 15 1014.6 - - - - - - - - -
28/06:00am - SSE 8 14 1014.4 - - - - - - - - -
28/05:30am - SSE 12 15 1014.2 - - - - - - - - -
28/05:00am - SSE 12 15 1014.1 - - - - - - - - -
28/04:30am - SSE 13 17 1013.9 - - - - - - - - -
28/04:00am - SSE 14 17 1013.9 - - - - - - - - -
28/03:30am - SSE 14 17 1013.8 - - - - - - - - -
28/03:00am - SSE 13 18 1013.7 - - - - - - - - -
28/02:30am - SSE 12 16 1013.7 - - - - - - - - -
28/02:00am - S 13 17 1013.7 - - - - - - - - -
28/01:30am - SSW 13 17 1013.8 - - - - - - - - -
28/01:00am - SSW 13 15 1013.8 - - - - - - - - -
28/12:30am - SW 10 15 1014.0 - - - - - - - - -
28/12:00am - SW 4 9 1014.3 - - - - - - - - -
 
Date/Time
WST
Temp
°C
Wind Pressure Rain since
9am
mm
Weather Cloud Vis
km
Sea
Height
m
Swell
Dir  Spd
kts
Gust
kts
hPa Trend Height
m
Period
s
Dir
27/11:30pm - SW 8 9 1014.3 - - - - - - - - -
27/11:00pm - SW 7 8 1014.4 - - - - - - - - -
27/10:30pm - SW 2 5 1014.7 - - - - - - - - -
27/10:00pm - SW 7 8 1014.6 - - - - - - - - -
27/09:30pm - SW 5 7 1014.6 - - - - - - - - -
27/09:00pm - SW 1 3 1014.7 - - - - - - - - -
27/08:30pm - SSW 7 9 1014.6 - - - - - - - - -
27/08:00pm - SSW 7 8 1014.6 - - - - - - - - -
27/07:30pm - SSW 7 9 1014.4 - - - - - - - - -
27/07:00pm - SSW 6 7 1014.2 - - - - - - - - -
27/06:30pm - SSW 6 8 1013.9 - - - - - - - - -
27/06:00pm - SSW 5 7 1013.8 - - - - - - - - -
27/05:30pm - SSW 5 7 1013.6 - - - - - - - - -
27/05:00pm - S 6 8 1013.3 - - - - - - - - -
27/04:30pm - SSW 8 10 1013.1 - - - - - - - - -
27/04:00pm - S 8 12 1012.9 - - - - - - - - -
27/03:30pm - S 9 13 1012.8 - - - - - - - - -
27/03:00pm - SSE 9 11 1012.9 - - - - - - - - -
27/02:30pm - SSE 8 11 1013.0 - - - - - - - - -
27/02:00pm - SE 9 12 1013.2 - - - - - - - - -
27/01:30pm - SSE 9 12 1013.4 - - - - - - - - -
27/01:00pm - SSE 10 13 1013.8 - - - - - - - - -
27/12:30pm - SSE 10 13 1014.0 - - - - - - - - -
27/12:00pm - SSE 11 14 1014.3 - - - - - - - - -
27/11:30am - ESE 10 15 1014.8 - - - - - - - - -
27/11:00am - SSE 11 14 1015.0 - - - - - - - - -
27/10:30am - SE 11 14 1015.4 - - - - - - - - -
27/10:00am - SSE 11 13 1015.4 - - - - - - - - -
27/09:30am - SSE 13 15 1015.5 - - - - - - - - -
27/09:00am - SSE 12 15 1015.5 - - - - - - - - -
27/08:30am - SSE 10 13 1015.6 - - - - - - - - -
27/08:00am - SSE 9 11 1015.5 - - - - - - - - -
27/07:30am - S 9 11 1015.1 - - - - - - - - -
27/07:00am - S 5 10 1014.8 - - - - - - - - -
27/06:30am - S 5 9 1014.4 - - - - - - - - -
27/06:00am - S 6 7 1014.3 - - - - - - - - -
27/05:30am - S 6 7 1014.2 - - - - - - - - -
27/05:00am - S 6 7 1014.2 - - - - - - - - -
27/04:30am - S 6 7 1014.1 - - - - - - - - -
27/04:00am - S 6 7 1014.1 - - - - - - - - -
27/03:30am - S 6 7 1013.9 - - - - - - - - -
27/03:00am - SSW 6 7 1014.0 - - - - - - - - -
27/02:30am - SSW 7 8 1014.0 - - - - - - - - -
27/02:00am - SSW 6 7 1014.0 - - - - - - - - -
27/01:30am - SSW 7 8 1014.2 - - - - - - - - -
27/01:00am - SSW 6 8 1014.5 - - - - - - - - -
27/12:30am - SW 7 8 1014.7 - - - - - - - - -
27/12:00am - SW 6 7 1014.7 - - - - - - - - -
 
Date/Time
WST
Temp
°C
Wind Pressure Rain since
9am
mm
Weather Cloud Vis
km
Sea
Height
m
Swell
Dir  Spd
kts
Gust
kts
hPa Trend Height
m
Period
s
Dir
26/11:30pm - SW 5 7 1014.8 - - - - - - - - -
26/11:00pm - SSW 6 7 1014.9 - - - - - - - - -
26/10:30pm - SSW 6 7 1014.9 - - - - - - - - -
26/10:00pm - SW 6 7 1015.0 - - - - - - - - -
26/09:30pm - SSW 5 7 1015.1 - - - - - - - - -
26/09:00pm - SW 5 6 1015.0 - - - - - - - - -
26/08:30pm - SW 6 7 1015.0 - - - - - - - - -
26/08:00pm - SSW 6 7 1014.8 - - - - - - - - -
26/07:30pm - S 5 6 1014.7 - - - - - - - - -
26/07:00pm - S 5 6 1014.5 - - - - - - - - -
26/06:30pm - S 5 6 1014.2 - - - - - - - - -
26/06:00pm - S 5 6 1013.8 - - - - - - - - -
26/05:30pm - SSE 6 8 1013.7 - - - - - - - - -
26/05:00pm - W 6 7 1013.5 - - - - - - - - -
26/04:30pm - SSE 7 9 1013.3 - - - - - - - - -
26/04:00pm - SSW 9 11 1013.1 - - - - - - - - -
26/03:30pm - S 8 11 1013.0 - - - - - - - - -
26/03:00pm - SW 7 10 1012.9 - - - - - - - - -
26/02:30pm - SW 8 11 1013.0 - - - - - - - - -
26/02:00pm - SSW 8 11 1013.2 - - - - - - - - -
26/01:30pm - SW 8 11 1013.3 - - - - - - - - -
26/01:00pm - SSW 5 7 1013.5 - - - - - - - - -
26/12:30pm - SSW 5 6 1013.8 - - - - - - - - -
26/12:00pm - WSW 6 9 1014.3 - - - - - - - - -
26/11:30am - SW 7 10 1014.6 - - - - - - - - -
26/11:00am - NNW 6 8 1014.9 - - - - - - - - -
26/10:30am - SE 5 8 1015.0 - - - - - - - - -
26/10:00am - SE 6 8 1015.0 - - - - - - - - -
26/09:30am - ESE 6 8 1015.1 - - - - - - - - -
26/09:00am - E 6 7 1015.1 - - - - - - - - -
26/08:30am - SE 6 7 1015.0 - - - - - - - - -
26/08:00am - SSE 6 7 1014.8 - - - - - - - - -
26/07:30am - SSE 5 6 1014.5 - - - - - - - - -
26/07:00am - SSE 5 6 1014.1 - - - - - - - - -
26/06:30am - SE 5 6 1013.6 - - - - - - - - -
26/06:00am - SSE 6 6 1013.3 - - - - - - - - -
26/05:30am - SSE 6 7 1012.9 - - - - - - - - -
26/05:00am - SSE 6 7 1012.8 - - - - - - - - -
26/04:30am - SSE 6 7 1012.6 - - - - - - - - -
26/04:00am - SSE 6 7 1012.5 - - - - - - - - -
26/03:30am - SSE 7 8 1012.5 - - - - - - - - -
26/03:00am - S 7 8 1012.5 - - - - - - - - -
26/02:30am - S 7 8 1012.4 - - - - - - - - -
26/02:00am - S 7 9 1012.5 - - - - - - - - -
26/01:30am - SSW 8 9 1012.6 - - - - - - - - -
26/01:00am - SSW 8 9 1012.8 - - - - - - - - -
26/12:30am - S 8 9 1013.2 - - - - - - - - -
26/12:00am - SSW 8 9 1013.3 - - - - - - - - -
 
Date/Time
WST
Temp
°C
Wind Pressure Rain since
9am
mm
Weather Cloud Vis
km
Sea
Height
m
Swell
Dir  Spd
kts
Gust
kts
hPa Trend Height
m
Period
s
Dir
25/11:30pm - SSW 7 8 1013.4 - - - - - - - - -
25/11:00pm - SSW 8 9 1013.5 - - - - - - - - -
25/10:30pm - SSW 7 9 1013.6 - - - - - - - - -

Other Formats:

Comma delimited format used in spreadsheet applications
http://www.bom.gov.au/fwo/IDW60701/IDW60701.94210.axf

JavaScript Object Notation format (JSON) in row-major order
http://www.bom.gov.au/fwo/IDW60701/IDW60701.94210.json